TimeHST,TemperatureF,Dew PointF,Humidity,Sea Level PressureIn,VisibilityMPH,Wind Direction,Wind SpeedMPH,Gust SpeedMPH,PrecipitationIn,Events,Conditions,WindDirDegrees,DateUTC
12:57 AM,71.6,61.0,69,30.17,7.0,ENE,13.8,23.0,N/A,,Scattered Clouds,70,2013-02-27 10:57:00
1:57 AM,71.6,61.0,69,30.15,7.0,East,17.3,26.5,N/A,,Scattered Clouds,80,2013-02-27 11:57:00
2:57 AM,71.6,59.0,64,30.14,7.0,ENE,10.4,23.0,N/A,,Scattered Clouds,70,2013-02-27 12:57:00
3:57 AM,71.6,57.9,62,30.14,7.0,East,13.8,25.3,N/A,,Scattered Clouds,80,2013-02-27 13:57:00
4:57 AM,71.6,62.1,72,30.14,7.0,East,15.0,27.6,N/A,,Scattered Clouds,80,2013-02-27 14:57:00
5:57 AM,73.4,60.1,63,30.15,7.0,East,12.7,21.9,N/A,,Scattered Clouds,80,2013-02-27 15:57:00
6:57 AM,73.4,57.9,58,30.16,7.0,ENE,18.4,26.5,N/A,,Scattered Clouds,70,2013-02-27 16:57:00
7:57 AM,75.2,55.0,49,30.18,7.0,East,9.2,17.3,N/A,,Scattered Clouds,100,2013-02-27 17:57:00
8:57 AM,75.2,55.9,51,30.20,7.0,ENE,15.0,25.3,N/A,,Scattered Clouds,70,2013-02-27 18:57:00
9:57 AM,75.2,55.0,49,30.20,7.0,ENE,10.4,21.9,N/A,,Clear,70,2013-02-27 19:57:00
10:57 AM,75.2,55.9,51,30.20,7.0,East,10.4,27.6,N/A,,Partly Cloudy,90,2013-02-27 20:57:00
11:57 AM,77.7,57.9,50,30.18,7.0,East,15.0,21.9,N/A,,Clear,100,2013-02-27 21:57:00
12:57 PM,78.8,55.9,45,30.16,7.0,East,13.8,21.9,N/A,,Scattered Clouds,80,2013-02-27 22:57:00
1:57 PM,80.6,61.0,51,30.14,7.0,ENE,11.5,21.9,N/A,,Scattered Clouds,70,2013-02-27 23:57:00
2:57 PM,82.4,61.0,48,30.12,7.0,ENE,12.7,21.9,N/A,,Scattered Clouds,60,2013-02-28 00:57:00
3:57 PM,78.8,60.1,53,30.12,7.0,ENE,11.5,21.9,N/A,,Scattered Clouds,70,2013-02-28 01:57:00
4:57 PM,77.0,60.1,56,30.12,7.0,ENE,13.8,21.9,N/A,,Scattered Clouds,70,2013-02-28 02:57:00
5:57 PM,75.2,59.0,57,30.14,7.0,East,10.4,19.6,0.00,Rain,Light Rain,100,2013-02-28 03:57:00
6:57 PM,73.4,62.1,68,30.15,7.0,East,12.7,21.9,0.00,,Scattered Clouds,80,2013-02-28 04:57:00
7:57 PM,73.4,59.0,61,30.16,7.0,East,9.2,-,N/A,,Scattered Clouds,80,2013-02-28 05:57:00
8:57 PM,73.4,60.1,63,30.18,7.0,ENE,10.4,20.7,N/A,,Partly Cloudy,70,2013-02-28 06:57:00
9:57 PM,71.6,59.0,64,30.18,7.0,East,11.5,23.0,N/A,,Mostly Cloudy,80,2013-02-28 07:57:00
10:57 PM,71.6,60.1,67,30.17,7.0,East,9.2,20.7,N/A,,Scattered Clouds,100,2013-02-28 08:57:00
11:57 PM,71.6,57.9,62,30.16,7.0,East,11.5,19.6,N/A,,Scattered Clouds,80,2013-02-28 09:57:00